sensor_id;sensor_type;location;lat;lon;timestamp;pressure;altitude;pressure_sealevel;temperature;humidity
49377;BME280;35253;34.688;33.040;2023-07-28T00:00:16;100057.06;;;30.66;76.95
49377;BME280;35253;34.688;33.040;2023-07-28T00:02:41;100055.97;;;30.67;78.30
49377;BME280;35253;34.688;33.040;2023-07-28T00:05:07;100055.97;;;30.67;77.78
49377;BME280;35253;34.688;33.040;2023-07-28T00:07:33;100060.66;;;30.67;77.71
49377;BME280;35253;34.688;33.040;2023-07-28T00:10:01;100054.31;;;30.66;77.09
49377;BME280;35253;34.688;33.040;2023-07-28T00:12:26;100059.81;;;30.66;75.78
49377;BME280;35253;34.688;33.040;2023-07-28T00:14:52;100052.13;;;30.68;75.86
49377;BME280;35253;34.688;33.040;2023-07-28T00:17:18;100064.56;;;30.59;75.66
49377;BME280;35253;34.688;33.040;2023-07-28T00:19:43;100056.94;;;30.61;75.98
49377;BME280;35253;34.688;33.040;2023-07-28T00:22:09;100066.25;;;30.60;77.26
49377;BME280;35253;34.688;33.040;2023-07-28T00:24:35;100071.38;;;30.57;75.78
49377;BME280;35253;34.688;33.040;2023-07-28T00:27:00;100072.22;;;30.57;77.59
49377;BME280;35253;34.688;33.040;2023-07-28T00:29:26;100073.28;;;30.56;78.80
49377;BME280;35253;34.688;33.040;2023-07-28T00:31:51;100067.28;;;30.48;79.20
49377;BME280;35253;34.688;33.040;2023-07-28T00:34:18;100070.19;;;30.53;80.49
49377;BME280;35253;34.688;33.040;2023-07-28T00:36:43;100073.63;;;30.48;80.54
49377;BME280;35253;34.688;33.040;2023-07-28T00:39:09;100071.88;;;30.54;81.02
49377;BME280;35253;34.688;33.040;2023-07-28T00:41:35;100069.44;;;30.46;81.43
49377;BME280;35253;34.688;33.040;2023-07-28T00:44:00;100070.41;;;30.51;83.93
49377;BME280;35253;34.688;33.040;2023-07-28T00:46:26;100067.66;;;30.51;84.76
49377;BME280;35253;34.688;33.040;2023-07-28T00:48:52;100065.16;;;30.50;87.63
49377;BME280;35253;34.688;33.040;2023-07-28T00:51:18;100066.44;;;30.47;89.06
49377;BME280;35253;34.688;33.040;2023-07-28T00:53:44;100068.13;;;30.48;91.15
49377;BME280;35253;34.688;33.040;2023-07-28T00:56:11;100076.97;;;30.50;93.40
49377;BME280;35253;34.688;33.040;2023-07-28T00:58:36;100068.97;;;30.49;95.54
49377;BME280;35253;34.688;33.040;2023-07-28T01:01:02;100073.63;;;30.48;94.96
49377;BME280;35253;34.688;33.040;2023-07-28T01:03:28;100075.78;;;30.46;95.00
49377;BME280;35253;34.688;33.040;2023-07-28T01:06:14;100058.41;;;30.46;94.96
49377;BME280;35253;34.688;33.040;2023-07-28T01:08:56;100068.81;;;30.43;93.94
49377;BME280;35253;34.688;33.040;2023-07-28T01:11:22;100066.06;;;30.43;93.46
49377;BME280;35253;34.688;33.040;2023-07-28T01:13:48;100066.63;;;30.34;92.21
49377;BME280;35253;34.688;33.040;2023-07-28T01:16:14;100053.47;;;30.36;91.95
49377;BME280;35253;34.688;33.040;2023-07-28T01:18:40;100053.47;;;30.36;91.02
49377;BME280;35253;34.688;33.040;2023-07-28T01:21:08;100047.72;;;30.37;89.83
49377;BME280;35253;34.688;33.040;2023-07-28T01:26:15;100056.25;;;30.36;93.66
49377;BME280;35253;34.688;33.040;2023-07-28T01:28:43;100054.56;;;30.35;94.66
49377;BME280;35253;34.688;33.040;2023-07-28T01:31:09;100050.59;;;30.31;93.13
49377;BME280;35253;34.688;33.040;2023-07-28T01:33:36;100052.28;;;30.32;90.58
49377;BME280;35253;34.688;33.040;2023-07-28T01:36:02;100050.97;;;30.34;88.71
49377;BME280;35253;34.688;33.040;2023-07-28T01:38:28;100047.88;;;30.42;86.59
49377;BME280;35253;34.688;33.040;2023-07-28T01:40:54;100051.31;;;30.38;86.01
49377;BME280;35253;34.688;33.040;2023-07-28T01:43:20;100051.03;;;30.28;85.73
49377;BME280;35253;34.688;33.040;2023-07-28T01:45:45;100059.06;;;30.29;86.23
49377;BME280;35253;34.688;33.040;2023-07-28T01:48:11;100060.53;;;30.32;87.73
49377;BME280;35253;34.688;33.040;2023-07-28T01:50:37;100064.09;;;30.32;88.97
49377;BME280;35253;34.688;33.040;2023-07-28T01:53:05;100061.44;;;30.26;89.50
49377;BME280;35253;34.688;33.040;2023-07-28T01:55:30;100060.56;;;30.14;89.13
49377;BME280;35253;34.688;33.040;2023-07-28T01:58:00;100055.31;;;29.94;89.88
49377;BME280;35253;34.688;33.040;2023-07-28T02:00:27;100056.66;;;29.91;90.45
49377;BME280;35253;34.688;33.040;2023-07-28T02:02:53;100051.28;;;29.96;91.60
49377;BME280;35253;34.688;33.040;2023-07-28T02:05:19;100059.53;;;29.78;91.65
49377;BME280;35253;34.688;33.040;2023-07-28T02:07:46;100062.34;;;29.72;91.12
49377;BME280;35253;34.688;33.040;2023-07-28T02:10:11;100062.28;;;29.78;91.25
49377;BME280;35253;34.688;33.040;2023-07-28T02:12:38;100065.78;;;29.85;92.61
49377;BME280;35253;34.688;33.040;2023-07-28T02:15:05;100069.38;;;29.86;92.91
49377;BME280;35253;34.688;33.040;2023-07-28T02:17:31;100061.44;;;29.78;94.04
49377;BME280;35253;34.688;33.040;2023-07-28T02:19:56;100066.09;;;29.77;92.95
49377;BME280;35253;34.688;33.040;2023-07-28T02:22:22;100060.53;;;29.47;91.79
49377;BME280;35253;34.688;33.040;2023-07-28T02:24:48;100065.03;;;29.60;89.93
49377;BME280;35253;34.688;33.040;2023-07-28T02:27:13;100076.06;;;29.53;91.06
49377;BME280;35253;34.688;33.040;2023-07-28T02:29:39;100073.66;;;29.64;91.65
49377;BME280;35253;34.688;33.040;2023-07-28T02:32:05;100075.19;;;29.60;92.15
49377;BME280;35253;34.688;33.040;2023-07-28T02:34:30;100070.53;;;29.60;92.05
49377;BME280;35253;34.688;33.040;2023-07-28T02:36:57;100071.13;;;29.62;92.64
49377;BME280;35253;34.688;33.040;2023-07-28T02:39:23;100072.75;;;29.70;94.25
49377;BME280;35253;34.688;33.040;2023-07-28T02:41:50;100075.66;;;29.75;95.15
49377;BME280;35253;34.688;33.040;2023-07-28T02:44:15;100077.31;;;29.76;95.03
49377;BME280;35253;34.688;33.040;2023-07-28T02:46:41;100080.53;;;29.73;95.24
49377;BME280;35253;34.688;33.040;2023-07-28T02:49:06;100088.38;;;29.51;95.14
49377;BME280;35253;34.688;33.040;2023-07-28T02:51:32;100083.75;;;29.27;96.71
49377;BME280;35253;34.688;33.040;2023-07-28T02:54:00;100094.22;;;29.11;98.50
49377;BME280;35253;34.688;33.040;2023-07-28T02:56:26;100086.50;;;29.27;98.83
49377;BME280;35253;34.688;33.040;2023-07-28T02:58:51;100092.41;;;29.30;99.55
49377;BME280;35253;34.688;33.040;2023-07-28T03:01:17;100096.59;;;29.33;100.00
49377;BME280;35253;34.688;33.040;2023-07-28T03:03:43;100091.88;;;29.40;100.00
49377;BME280;35253;34.688;33.040;2023-07-28T03:06:09;100090.06;;;29.52;100.00
49377;BME280;35253;34.688;33.040;2023-07-28T03:08:34;100095.47;;;29.59;100.00
49377;BME280;35253;34.688;33.040;2023-07-28T03:11:00;100098.75;;;29.67;100.00
49377;BME280;35253;34.688;33.040;2023-07-28T03:13:29;100092.97;;;29.57;100.00
49377;BME280;35253;34.688;33.040;2023-07-28T03:15:54;100094.63;;;29.58;100.00
49377;BME280;35253;34.688;33.040;2023-07-28T03:18:20;100092.19;;;29.68;100.00
49377;BME280;35253;34.688;33.040;2023-07-28T03:20:46;100096.16;;;29.72;100.00
49377;BME280;35253;34.688;33.040;2023-07-28T03:23:12;100098.06;;;29.72;100.00
49377;BME280;35253;34.688;33.040;2023-07-28T03:25:38;100092.81;;;29.70;100.00
49377;BME280;35253;34.688;33.040;2023-07-28T03:28:04;100098.91;;;29.72;99.24
49377;BME280;35253;34.688;33.040;2023-07-28T03:30:30;100097.22;;;29.71;98.28
49377;BME280;35253;34.688;33.040;2023-07-28T03:32:55;100094.72;;;29.70;99.15
49377;BME280;35253;34.688;33.040;2023-07-28T03:35:21;100097.63;;;29.57;96.12
49377;BME280;35253;34.688;33.040;2023-07-28T03:37:47;100102.19;;;29.63;96.34
49377;BME280;35253;34.688;33.040;2023-07-28T03:40:13;100092.81;;;29.70;94.89
49377;BME280;35253;34.688;33.040;2023-07-28T03:42:38;100104.72;;;29.82;94.55
49377;BME280;35253;34.688;33.040;2023-07-28T03:45:05;100098.94;;;29.90;93.70
49377;BME280;35253;34.688;33.040;2023-07-28T03:47:30;100103.19;;;29.86;91.92
49377;BME280;35253;34.688;33.040;2023-07-28T03:49:56;100109.00;;;29.60;91.17
49377;BME280;35253;34.688;33.040;2023-07-28T03:52:21;100112.47;;;29.49;92.45
49377;BME280;35253;34.688;33.040;2023-07-28T03:54:47;100115.75;;;29.58;90.23
49377;BME280;35253;34.688;33.040;2023-07-28T03:57:13;100117.22;;;29.60;91.45
49377;BME280;35253;34.688;33.040;2023-07-28T03:59:38;100121.06;;;29.77;90.90
49377;BME280;35253;34.688;33.040;2023-07-28T04:02:04;100118.81;;;29.92;92.51
49377;BME280;35253;34.688;33.040;2023-07-28T04:04:30;100117.69;;;30.12;93.53
49377;BME280;35253;34.688;33.040;2023-07-28T04:06:55;100119.75;;;30.16;93.58
49377;BME280;35253;34.688;33.040;2023-07-28T04:09:21;100127.69;;;30.24;92.19
49377;BME280;35253;34.688;33.040;2023-07-28T04:11:47;100120.91;;;30.27;90.14
49377;BME280;35253;34.688;33.040;2023-07-28T04:14:13;100129.56;;;30.42;91.42
49377;BME280;35253;34.688;33.040;2023-07-28T04:16:39;100133.38;;;30.41;90.64
49377;BME280;35253;34.688;33.040;2023-07-28T04:19:05;100131.19;;;30.50;92.32
49377;BME280;35253;34.688;33.040;2023-07-28T04:21:31;100142.47;;;30.41;91.75
49377;BME280;35253;34.688;33.040;2023-07-28T04:23:56;100131.72;;;30.40;92.72
49377;BME280;35253;34.688;33.040;2023-07-28T04:26:24;100132.09;;;30.73;93.30
49377;BME280;35253;34.688;33.040;2023-07-28T04:28:50;100136.38;;;30.69;91.80
49377;BME280;35253;34.688;33.040;2023-07-28T04:31:15;100140.69;;;30.65;91.59
49377;BME280;35253;34.688;33.040;2023-07-28T04:33:42;100140.88;;;30.52;92.17
49377;BME280;35253;34.688;33.040;2023-07-28T04:36:08;100145.06;;;30.84;90.29
49377;BME280;35253;34.688;33.040;2023-07-28T04:38:34;100147.88;;;31.08;91.40
49377;BME280;35253;34.688;33.040;2023-07-28T04:40:59;100154.34;;;31.25;90.93
49377;BME280;35253;34.688;33.040;2023-07-28T04:43:25;100160.34;;;31.33;89.23
49377;BME280;35253;34.688;33.040;2023-07-28T04:45:51;100157.13;;;31.25;88.42
49377;BME280;35253;34.688;33.040;2023-07-28T04:48:16;100159.72;;;31.08;88.25
49377;BME280;35253;34.688;33.040;2023-07-28T04:50:42;100168.97;;;31.14;87.93
49377;BME280;35253;34.688;33.040;2023-07-28T04:53:08;100170.16;;;31.29;88.37
49377;BME280;35253;34.688;33.040;2023-07-28T04:55:33;100167.63;;;31.05;90.51
49377;BME280;35253;34.688;33.040;2023-07-28T04:57:59;100171.09;;;31.00;91.33
49377;BME280;35253;34.688;33.040;2023-07-28T05:00:24;100182.53;;;31.27;88.85
49377;BME280;35253;34.688;33.040;2023-07-28T05:02:50;100181.81;;;31.20;89.05
49377;BME280;35253;34.688;33.040;2023-07-28T05:05:16;100189.97;;;30.97;89.82
49377;BME280;35253;34.688;33.040;2023-07-28T05:07:42;100194.03;;;31.24;87.78
49377;BME280;35253;34.688;33.040;2023-07-28T05:10:07;100191.72;;;31.21;88.33
49377;BME280;35253;34.688;33.040;2023-07-28T05:12:33;100198.56;;;31.30;88.30
49377;BME280;35253;34.688;33.040;2023-07-28T05:14:59;100204.34;;;31.40;86.95
49377;BME280;35253;34.688;33.040;2023-07-28T05:17:25;100200.88;;;31.45;86.35
49377;BME280;35253;34.688;33.040;2023-07-28T05:19:50;100205.06;;;31.47;85.28
49377;BME280;35253;34.688;33.040;2023-07-28T05:22:16;100199.66;;;31.52;82.92
49377;BME280;35253;34.688;33.040;2023-07-28T05:24:42;100209.91;;;31.63;78.64
49377;BME280;35253;34.688;33.040;2023-07-28T05:27:10;100212.75;;;31.68;76.20
49377;BME280;35253;34.688;33.040;2023-07-28T05:29:36;100215.75;;;31.79;73.12
49377;BME280;35253;34.688;33.040;2023-07-28T05:32:02;100215.66;;;31.85;71.26
49377;BME280;35253;34.688;33.040;2023-07-28T05:34:27;100220.28;;;32.08;70.14
49377;BME280;35253;34.688;33.040;2023-07-28T05:36:53;100220.44;;;31.78;72.70
49377;BME280;35253;34.688;33.040;2023-07-28T05:39:19;100222.13;;;31.67;73.30
49377;BME280;35253;34.688;33.040;2023-07-28T05:41:45;100221.28;;;31.67;74.47
49377;BME280;35253;34.688;33.040;2023-07-28T05:44:10;100222.59;;;31.64;79.86
49377;BME280;35253;34.688;33.040;2023-07-28T05:46:36;100210.88;;;31.81;83.63
49377;BME280;35253;34.688;33.040;2023-07-28T05:49:02;100220.28;;;32.08;84.97
49377;BME280;35253;34.688;33.040;2023-07-28T05:51:27;100203.16;;;32.57;84.11
49377;BME280;35253;34.688;33.040;2023-07-28T05:53:54;100213.41;;;32.85;84.67
49377;BME280;35253;34.688;33.040;2023-07-28T05:56:20;100217.47;;;33.11;85.09
49377;BME280;35253;34.688;33.040;2023-07-28T05:58:49;100215.91;;;33.15;85.20
49377;BME280;35253;34.688;33.040;2023-07-28T06:01:16;100219.56;;;32.76;90.14
49377;BME280;35253;34.688;33.040;2023-07-28T06:03:41;100219.28;;;32.89;90.53
49377;BME280;35253;34.688;33.040;2023-07-28T06:06:07;100226.94;;;32.87;91.94
49377;BME280;35253;34.688;33.040;2023-07-28T06:08:34;100224.22;;;33.32;91.06
49377;BME280;35253;34.688;33.040;2023-07-28T06:10:59;100227.06;;;33.20;93.47
49377;BME280;35253;34.688;33.040;2023-07-28T06:13:25;100224.22;;;33.48;92.88
49377;BME280;35253;34.688;33.040;2023-07-28T06:15:53;100225.97;;;32.93;97.93
49377;BME280;35253;34.688;33.040;2023-07-28T06:18:19;100224.16;;;32.58;100.00
49377;BME280;35253;34.688;33.040;2023-07-28T06:20:47;100222.44;;;32.81;100.00
49377;BME280;35253;34.688;33.040;2023-07-28T06:23:13;100227.97;;;32.81;100.00
49377;BME280;35253;34.688;33.040;2023-07-28T06:25:39;100232.69;;;33.14;100.00
49377;BME280;35253;34.688;33.040;2023-07-28T06:28:12;100231.56;;;33.26;100.00
49377;BME280;35253;34.688;33.040;2023-07-28T06:30:38;100224.56;;;33.52;100.00
49377;BME280;35253;34.688;33.040;2023-07-28T06:33:06;100231.69;;;33.65;100.00
49377;BME280;35253;34.688;33.040;2023-07-28T06:35:33;100233.75;;;33.58;100.00
49377;BME280;35253;34.688;33.040;2023-07-28T06:38:00;100230.50;;;33.94;100.00
49377;BME280;35253;34.688;33.040;2023-07-28T06:40:25;100244.59;;;34.14;100.00
49377;BME280;35253;34.688;33.040;2023-07-28T06:42:51;100243.63;;;34.20;100.00
49377;BME280;35253;34.688;33.040;2023-07-28T06:45:17;100241.06;;;34.35;100.00
49377;BME280;35253;34.688;33.040;2023-07-28T06:47:42;100243.38;;;34.44;100.00
49377;BME280;35253;34.688;33.040;2023-07-28T06:50:10;100247.63;;;34.51;100.00
49377;BME280;35253;34.688;33.040;2023-07-28T06:52:36;100235.72;;;34.51;100.00
49377;BME280;35253;34.688;33.040;2023-07-28T06:55:02;100246.34;;;34.59;100.00
49377;BME280;35253;34.688;33.040;2023-07-28T06:57:29;100245.50;;;34.58;100.00
49377;BME280;35253;34.688;33.040;2023-07-28T06:59:56;100256.84;;;34.35;100.00
49377;BME280;35253;34.688;33.040;2023-07-28T07:02:21;100263.41;;;34.29;100.00
49377;BME280;35253;34.688;33.040;2023-07-28T07:04:47;100260.94;;;34.32;100.00
49377;BME280;35253;34.688;33.040;2023-07-28T07:07:13;100263.94;;;34.48;100.00
49377;BME280;35253;34.688;33.040;2023-07-28T07:09:39;100263.34;;;34.46;100.00
49377;BME280;35253;34.688;33.040;2023-07-28T07:12:05;100257.50;;;33.87;100.00
49377;BME280;35253;34.688;33.040;2023-07-28T07:14:31;100267.09;;;34.01;100.00
49377;BME280;35253;34.688;33.040;2023-07-28T07:16:56;100262.44;;;33.51;100.00
49377;BME280;35253;34.688;33.040;2023-07-28T07:19:22;100260.41;;;33.47;100.00
49377;BME280;35253;34.688;33.040;2023-07-28T07:21:47;100264.41;;;33.39;100.00
49377;BME280;35253;34.688;33.040;2023-07-28T07:24:14;100269.34;;;33.66;100.00
49377;BME280;35253;34.688;33.040;2023-07-28T07:26:40;100261.59;;;33.51;100.00
49377;BME280;35253;34.688;33.040;2023-07-28T07:29:07;100269.28;;;33.49;100.00
49377;BME280;35253;34.688;33.040;2023-07-28T07:31:33;100266.50;;;33.32;100.00
49377;BME280;35253;34.688;33.040;2023-07-28T07:33:59;100258.81;;;33.06;100.00
49377;BME280;35253;34.688;33.040;2023-07-28T07:36:25;100264.19;;;33.13;100.00
49377;BME280;35253;34.688;33.040;2023-07-28T07:38:52;100261.28;;;33.19;100.00
49377;BME280;35253;34.688;33.040;2023-07-28T07:41:17;100260.31;;;33.14;100.00
49377;BME280;35253;34.688;33.040;2023-07-28T07:43:47;100259.72;;;33.23;100.00
49377;BME280;35253;34.688;33.040;2023-07-28T07:46:14;100262.56;;;33.28;100.00
49377;BME280;35253;34.688;33.040;2023-07-28T07:48:40;100261.25;;;33.47;100.00
49377;BME280;35253;34.688;33.040;2023-07-28T07:51:06;100269.94;;;33.39;100.00
49377;BME280;35253;34.688;33.040;2023-07-28T07:53:32;100271.59;;;33.24;100.00
49377;BME280;35253;34.688;33.040;2023-07-28T07:55:58;100257.56;;;33.42;100.00
49377;BME280;35253;34.688;33.040;2023-07-28T07:58:23;100264.78;;;33.43;100.00
49377;BME280;35253;34.688;33.040;2023-07-28T08:00:49;100260.31;;;33.14;100.00
49377;BME280;35253;34.688;33.040;2023-07-28T08:03:15;100265.75;;;33.37;100.00
49377;BME280;35253;34.688;33.040;2023-07-28T08:05:41;100265.44;;;33.33;100.00
49377;BME280;35253;34.688;33.040;2023-07-28T08:08:07;100262.59;;;33.45;100.00
49377;BME280;35253;34.688;33.040;2023-07-28T08:10:33;100263.94;;;33.59;100.00
49377;BME280;35253;34.688;33.040;2023-07-28T08:12:59;100249.84;;;33.44;100.00
49377;BME280;35253;34.688;33.040;2023-07-28T08:15:25;100257.44;;;33.82;100.00
49377;BME280;35253;34.688;33.040;2023-07-28T08:17:51;100261.66;;;33.39;100.00
49377;BME280;35253;34.688;33.040;2023-07-28T08:20:17;100259.47;;;33.58;100.00
49377;BME280;35253;34.688;33.040;2023-07-28T08:22:43;100255.75;;;33.81;100.00
49377;BME280;35253;34.688;33.040;2023-07-28T08:25:09;100264.22;;;33.91;100.00
49377;BME280;35253;34.688;33.040;2023-07-28T08:27:35;100263.38;;;33.90;100.00
49377;BME280;35253;34.688;33.040;2023-07-28T08:30:01;100256.00;;;33.79;100.00
49377;BME280;35253;34.688;33.040;2023-07-28T08:32:26;100261.59;;;33.84;100.00
49377;BME280;35253;34.688;33.040;2023-07-28T08:34:53;100265.13;;;33.80;100.00
49377;BME280;35253;34.688;33.040;2023-07-28T08:37:19;100261.13;;;33.87;100.00
49377;BME280;35253;34.688;33.040;2023-07-28T08:39:45;100259.44;;;33.86;100.00
49377;BME280;35253;34.688;33.040;2023-07-28T08:42:11;100258.97;;;34.11;100.00
49377;BME280;35253;34.688;33.040;2023-07-28T08:44:36;100262.88;;;33.77;100.00
49377;BME280;35253;34.688;33.040;2023-07-28T08:47:03;100258.59;;;33.69;100.00
49377;BME280;35253;34.688;33.040;2023-07-28T08:49:30;100259.03;;;33.78;100.00
49377;BME280;35253;34.688;33.040;2023-07-28T08:52:02;100256.75;;;33.75;100.00
49377;BME280;35253;34.688;33.040;2023-07-28T08:54:29;100249.22;;;33.87;100.00
49377;BME280;35253;34.688;33.040;2023-07-28T08:56:55;100251.13;;;33.86;100.00
49377;BME280;35253;34.688;33.040;2023-07-28T08:59:24;100258.41;;;33.92;100.00
49377;BME280;35253;34.688;33.040;2023-07-28T09:01:52;100246.28;;;34.15;100.00
49377;BME280;35253;34.688;33.040;2023-07-28T09:04:20;100252.75;;;33.66;100.00
49377;BME280;35253;34.688;33.040;2023-07-28T09:06:46;100252.31;;;33.74;100.00
49377;BME280;35253;34.688;33.040;2023-07-28T09:09:13;100239.19;;;34.19;100.00
49377;BME280;35253;34.688;33.040;2023-07-28T09:11:49;100243.84;;;34.35;100.00
49377;BME280;35253;34.688;33.040;2023-07-28T09:14:17;100246.22;;;34.10;100.00
49377;BME280;35253;34.688;33.040;2023-07-28T09:16:43;100238.94;;;34.04;100.00
49377;BME280;35253;34.688;33.040;2023-07-28T09:19:09;100247.53;;;33.86;100.00
49377;BME280;35253;34.688;33.040;2023-07-28T09:21:37;100245.81;;;34.02;100.00
49377;BME280;35253;34.688;33.040;2023-07-28T09:24:07;100242.63;;;33.93;100.00
49377;BME280;35253;34.688;33.040;2023-07-28T09:26:42;100237.56;;;34.23;100.00
49377;BME280;35253;34.688;33.040;2023-07-28T09:29:18;100235.19;;;34.32;100.00
49377;BME280;35253;34.688;33.040;2023-07-28T09:31:49;100240.69;;;34.49;100.00
49377;BME280;35253;34.688;33.040;2023-07-28T09:34:26;100234.25;;;34.43;100.00
49377;BME280;35253;34.688;33.040;2023-07-28T09:36:56;100240.63;;;34.05;100.00
49377;BME280;35253;34.688;33.040;2023-07-28T09:39:22;100231.72;;;34.20;100.00
49377;BME280;35253;34.688;33.040;2023-07-28T09:41:48;100235.22;;;34.15;100.00
49377;BME280;35253;34.688;33.040;2023-07-28T09:44:14;100229.50;;;34.00;100.00
49377;BME280;35253;34.688;33.040;2023-07-28T09:46:54;100236.81;;;34.11;100.00
49377;BME280;35253;34.688;33.040;2023-07-28T09:49:27;100232.38;;;34.10;100.00
49377;BME280;35253;34.688;33.040;2023-07-28T09:51:54;100223.31;;;34.31;100.00
49377;BME280;35253;34.688;33.040;2023-07-28T09:54:28;100226.69;;;34.60;100.00
49377;BME280;35253;34.688;33.040;2023-07-28T09:56:59;100225.09;;;34.43;100.00
49377;BME280;35253;34.688;33.040;2023-07-28T09:59:39;100225.91;;;33.83;100.00
49377;BME280;35253;34.688;33.040;2023-07-28T10:02:05;100226.53;;;34.67;100.00
49377;BME280;35253;34.688;33.040;2023-07-28T10:04:32;100228.00;;;34.53;100.00
49377;BME280;35253;34.688;33.040;2023-07-28T10:06:58;100235.91;;;34.22;100.00
49377;BME280;35253;34.688;33.040;2023-07-28T10:09:26;100223.69;;;34.18;100.00
49377;BME280;35253;34.688;33.040;2023-07-28T10:11:53;100226.00;;;34.26;100.00
49377;BME280;35253;34.688;33.040;2023-07-28T10:14:29;100222.19;;;34.54;100.00
49377;BME280;35253;34.688;33.040;2023-07-28T10:17:00;100218.53;;;34.49;100.00
49377;BME280;35253;34.688;33.040;2023-07-28T10:19:35;100222.41;;;34.48;100.00
49377;BME280;35253;34.688;33.040;2023-07-28T10:22:08;100228.25;;;34.29;100.00
49377;BME280;35253;34.688;33.040;2023-07-28T10:27:44;100226.47;;;34.18;100.00
49377;BME280;35253;34.688;33.040;2023-07-28T10:30:12;100222.97;;;34.28;100.00
49377;BME280;35253;34.688;33.040;2023-07-28T10:32:45;100221.25;;;34.22;100.00
49377;BME280;35253;34.688;33.040;2023-07-28T10:37:46;100214.28;;;34.19;100.00
49377;BME280;35253;34.688;33.040;2023-07-28T10:40:34;100209.97;;;34.28;100.00
49377;BME280;35253;34.688;33.040;2023-07-28T10:43:03;100210.97;;;34.88;100.00
49377;BME280;35253;34.688;33.040;2023-07-28T10:45:31;100213.03;;;34.97;100.00
49377;BME280;35253;34.688;33.040;2023-07-28T10:47:58;100210.94;;;34.61;100.00
49377;BME280;35253;34.688;33.040;2023-07-28T10:50:32;100222.44;;;34.96;100.00
49377;BME280;35253;34.688;33.040;2023-07-28T10:52:58;100215.94;;;34.64;100.00
49377;BME280;35253;34.688;33.040;2023-07-28T10:55:25;100210.03;;;35.04;100.00
49377;BME280;35253;34.688;33.040;2023-07-28T10:57:53;100207.63;;;35.12;100.00
49377;BME280;35253;34.688;33.040;2023-07-28T11:00:20;100201.78;;;34.60;100.00
49377;BME280;35253;34.688;33.040;2023-07-28T11:02:49;100198.91;;;34.28;100.00
49377;BME280;35253;34.688;33.040;2023-07-28T11:05:26;100204.63;;;34.22;100.00
49377;BME280;35253;34.688;33.040;2023-07-28T11:07:54;100201.34;;;34.68;100.00
49377;BME280;35253;34.688;33.040;2023-07-28T11:10:21;100203.69;;;35.08;100.00
49377;BME280;35253;34.688;33.040;2023-07-28T11:12:49;100200.13;;;34.37;100.00
49377;BME280;35253;34.688;33.040;2023-07-28T11:15:17;100193.16;;;34.78;100.00
49377;BME280;35253;34.688;33.040;2023-07-28T11:17:48;100196.47;;;35.07;100.00
49377;BME280;35253;34.688;33.040;2023-07-28T11:20:21;100186.19;;;34.54;100.00
49377;BME280;35253;34.688;33.040;2023-07-28T11:22:59;100198.22;;;34.87;100.00
49377;BME280;35253;34.688;33.040;2023-07-28T11:25:26;100190.13;;;34.58;100.00
49377;BME280;35253;34.688;33.040;2023-07-28T11:27:53;100200.66;;;34.34;100.00
49377;BME280;35253;34.688;33.040;2023-07-28T11:30:19;100194.50;;;34.32;100.00
49377;BME280;35253;34.688;33.040;2023-07-28T11:32:47;100188.25;;;34.64;100.00
49377;BME280;35253;34.688;33.040;2023-07-28T11:35:14;100185.13;;;35.09;100.00
49377;BME280;35253;34.688;33.040;2023-07-28T11:37:42;100185.34;;;35.02;100.00
49377;BME280;35253;34.688;33.040;2023-07-28T11:40:10;100184.84;;;34.78;100.00
49377;BME280;35253;34.688;33.040;2023-07-28T11:42:38;100191.25;;;34.35;100.00
49377;BME280;35253;34.688;33.040;2023-07-28T11:45:05;100180.28;;;34.67;100.00
49377;BME280;35253;34.688;33.040;2023-07-28T11:47:31;100179.38;;;34.89;100.00
49377;BME280;35253;34.688;33.040;2023-07-28T11:49:57;100179.38;;;34.89;100.00
49377;BME280;35253;34.688;33.040;2023-07-28T11:52:36;100173.47;;;34.80;100.00
49377;BME280;35253;34.688;33.040;2023-07-28T11:55:05;100166.13;;;34.42;100.00
49377;BME280;35253;34.688;33.040;2023-07-28T11:57:32;100181.00;;;34.36;100.00
49377;BME280;35253;34.688;33.040;2023-07-28T11:59:59;100171.81;;;34.30;100.00
49377;BME280;35253;34.688;33.040;2023-07-28T12:02:26;100166.13;;;34.20;100.00
49377;BME280;35253;34.688;33.040;2023-07-28T12:04:52;100170.97;;;34.30;100.00
49377;BME280;35253;34.688;33.040;2023-07-28T12:07:30;100171.75;;;33.87;100.00
49377;BME280;35253;34.688;33.040;2023-07-28T12:09:57;100165.97;;;34.27;100.00
49377;BME280;35253;34.688;33.040;2023-07-28T12:12:28;100161.03;;;34.12;100.00
49377;BME280;35253;34.688;33.040;2023-07-28T12:14:58;100158.38;;;33.79;100.00
49377;BME280;35253;34.688;33.040;2023-07-28T12:17:30;100154.66;;;33.90;100.00
49377;BME280;35253;34.688;33.040;2023-07-28T12:20:01;100151.34;;;33.71;100.00
49377;BME280;35253;34.688;33.040;2023-07-28T12:22:42;100163.91;;;33.79;100.00
49377;BME280;35253;34.688;33.040;2023-07-28T12:25:08;100158.78;;;34.09;100.00
49377;BME280;35253;34.688;33.040;2023-07-28T12:27:34;100158.97;;;34.03;100.00
49377;BME280;35253;34.688;33.040;2023-07-28T12:30:01;100144.34;;;34.51;100.00
49377;BME280;35253;34.688;33.040;2023-07-28T12:32:27;100146.47;;;34.17;100.00
49377;BME280;35253;34.688;33.040;2023-07-28T12:34:53;100144.63;;;34.27;100.00
49377;BME280;35253;34.688;33.040;2023-07-28T12:37:19;100139.97;;;34.55;100.00
49377;BME280;35253;34.688;33.040;2023-07-28T12:39:47;100152.53;;;34.40;100.00
49377;BME280;35253;34.688;33.040;2023-07-28T12:42:16;100129.44;;;34.08;100.00